createdAt,value
2018-02-17T00:00:58.425Z,18.70
2018-02-17T00:03:25.872Z,18.98
2018-02-17T00:05:54.251Z,18.10
2018-02-17T00:08:22.016Z,18.50
2018-02-17T00:10:49.469Z,18.00
2018-02-17T00:13:20.673Z,16.33
2018-02-17T00:15:49.044Z,17.66
2018-02-17T00:18:16.517Z,19.23
2018-02-17T00:20:43.987Z,18.70
2018-02-17T00:23:11.481Z,19.83
2018-02-17T00:25:40.884Z,19.87
2018-02-17T00:28:08.352Z,17.70
2018-02-17T00:30:35.857Z,17.12
2018-02-17T00:33:03.308Z,18.50
2018-02-17T00:35:30.753Z,17.47
2018-02-17T00:37:58.219Z,18.40
2018-02-17T00:40:25.696Z,17.90
2018-02-17T00:42:53.140Z,17.40
2018-02-17T00:45:20.647Z,16.50
2018-02-17T00:47:48.169Z,17.02
2018-02-17T00:50:15.632Z,17.47
2018-02-17T00:52:43.304Z,17.23
2018-02-17T00:55:11.252Z,15.93
2018-02-17T00:57:42.828Z,16.20
2018-02-17T01:00:10.300Z,18.37
2018-02-17T01:02:37.753Z,18.50
2018-02-17T01:05:06.149Z,20.83
2018-02-17T01:07:33.591Z,19.03
2018-02-17T01:10:01.065Z,20.10
2018-02-17T01:12:28.529Z,21.48
2018-02-17T01:14:56.744Z,23.55
2018-02-17T01:17:26.451Z,20.52
2018-02-17T01:19:53.891Z,22.77
2018-02-17T01:22:21.382Z,23.30
2018-02-17T01:24:48.840Z,20.60
2018-02-17T01:27:16.347Z,18.15
2018-02-17T01:29:44.413Z,18.90
2018-02-17T01:32:12.202Z,18.40
2018-02-17T01:34:39.925Z,18.23
2018-02-17T01:37:07.372Z,18.00
2018-02-17T01:39:34.854Z,18.30
2018-02-17T01:42:02.363Z,17.58
2018-02-17T01:44:29.821Z,15.65
2018-02-17T01:46:57.850Z,17.52
2018-02-17T01:49:25.337Z,15.10
2018-02-17T01:51:52.960Z,17.87
2018-02-17T01:54:20.398Z,15.90
2018-02-17T01:56:47.962Z,17.23
2018-02-17T01:59:15.401Z,18.40
2018-02-17T02:01:42.845Z,16.95
2018-02-17T02:04:10.313Z,17.00
2018-02-17T02:06:37.784Z,19.05
2018-02-17T02:09:06.173Z,16.90
2018-02-17T02:11:33.620Z,15.60
2018-02-17T02:14:04.164Z,15.00
2018-02-17T02:16:31.604Z,15.57
2018-02-17T02:18:59.062Z,15.15
2018-02-17T02:21:26.564Z,16.70
2018-02-17T02:23:54.018Z,17.35
2018-02-17T02:26:21.448Z,15.37
2018-02-17T02:28:48.918Z,16.12
2018-02-17T02:31:16.370Z,17.23
2018-02-17T02:33:45.901Z,14.77
2018-02-17T02:36:13.349Z,17.70
2018-02-17T02:38:41.035Z,15.48
2018-02-17T02:41:09.924Z,18.60
2018-02-17T02:43:37.665Z,18.08
2018-02-17T02:46:08.164Z,18.90
2018-02-17T02:48:35.653Z,20.33
2018-02-17T02:51:04.240Z,16.05
2018-02-17T02:53:31.693Z,19.77
2018-02-17T02:55:59.141Z,16.90
2018-02-17T02:58:26.616Z,17.80
2018-02-17T03:01:01.480Z,18.37
2018-02-17T03:03:28.940Z,23.25
2018-02-17T03:05:57.177Z,20.33
2018-02-17T03:08:25.436Z,22.23
2018-02-17T03:13:28.018Z,17.63
2018-02-17T03:15:55.538Z,15.83
2018-02-17T03:18:23.049Z,16.33
2018-02-17T03:20:50.519Z,15.87
2018-02-17T03:23:19.677Z,16.63
2018-02-17T03:25:47.348Z,16.43
2018-02-17T03:28:14.792Z,21.77
2018-02-17T03:30:53.735Z,19.40
2018-02-17T03:33:21.192Z,19.35
2018-02-17T03:35:48.940Z,20.33
2018-02-17T03:38:16.396Z,19.12
2018-02-17T03:40:43.857Z,18.48
2018-02-17T03:43:11.338Z,17.37
2018-02-17T03:45:44.428Z,17.17
2018-02-17T03:48:12.065Z,19.20
2018-02-17T03:50:39.858Z,18.55
2018-02-17T03:53:07.328Z,19.07
2018-02-17T03:55:34.784Z,14.87
2018-02-17T03:58:02.265Z,15.70
2018-02-17T04:00:33.490Z,15.35
2018-02-17T04:03:01.792Z,13.67
2018-02-17T04:05:29.323Z,15.57
2018-02-17T04:07:57.535Z,15.17
2018-02-17T04:10:25.016Z,16.73
2018-02-17T04:12:52.772Z,14.50
2018-02-17T04:15:20.228Z,13.83
2018-02-17T04:17:48.359Z,16.65
2018-02-17T04:20:15.950Z,16.00
2018-02-17T04:22:43.454Z,15.23
2018-02-17T04:25:10.898Z,15.50
2018-02-17T04:27:38.377Z,16.83
2018-02-17T04:30:05.830Z,12.80
2018-02-17T04:32:36.444Z,17.87
2018-02-17T04:35:03.896Z,16.52
2018-02-17T04:37:32.480Z,17.05
2018-02-17T04:40:05.519Z,14.13
2018-02-17T04:42:38.561Z,17.30
2018-02-17T04:45:08.901Z,17.20
2018-02-17T04:47:39.971Z,14.60
2018-02-17T04:50:13.310Z,15.27
2018-02-17T04:52:50.674Z,17.07
2018-02-17T04:55:23.859Z,13.43
2018-02-17T04:57:53.403Z,14.75
2018-02-17T05:00:20.834Z,14.80
2018-02-17T05:06:06.228Z,16.50
2018-02-17T05:08:37.181Z,14.57
2018-02-17T05:11:05.572Z,17.34
2018-02-17T05:13:33.061Z,13.50
2018-02-17T05:16:06.504Z,17.57
2018-02-17T05:18:35.753Z,14.05
2018-02-17T05:21:20.033Z,16.37
2018-02-17T05:23:48.440Z,15.55
2018-02-17T05:26:16.651Z,15.47
2018-02-17T05:28:47.335Z,16.53
2018-02-17T05:31:14.776Z,16.23
2018-02-17T05:33:48.882Z,17.47
2018-02-17T05:36:20.975Z,15.10
2018-02-17T05:39:07.316Z,16.15
2018-02-17T05:41:40.585Z,16.23
2018-02-17T05:47:36.976Z,15.60
2018-02-17T05:50:04.521Z,13.90
2018-02-17T05:52:33.704Z,14.00
2018-02-17T05:55:01.156Z,16.20
2018-02-17T05:57:30.113Z,16.00
2018-02-17T05:59:57.802Z,16.13
2018-02-17T06:02:29.336Z,16.40
2018-02-17T06:04:56.776Z,16.40
2018-02-17T06:07:24.227Z,16.42
2018-02-17T06:09:51.724Z,15.15
2018-02-17T06:12:19.345Z,13.10
2018-02-17T06:14:46.793Z,13.77
2018-02-17T06:17:14.236Z,14.80
2018-02-17T06:19:42.979Z,14.60
2018-02-17T06:22:10.425Z,15.80
2018-02-17T06:24:37.873Z,14.95
2018-02-17T06:27:05.349Z,15.93
2018-02-17T06:29:32.826Z,16.70
2018-02-17T06:32:00.300Z,15.90
2018-02-17T06:34:27.806Z,15.40
2018-02-17T06:36:56.671Z,15.90
2018-02-17T06:39:24.141Z,14.60
2018-02-17T06:41:51.606Z,13.93
2018-02-17T06:44:19.048Z,14.27
2018-02-17T06:46:46.519Z,15.67
2018-02-17T06:49:18.116Z,15.63
2018-02-17T06:51:45.552Z,13.40
2018-02-17T06:54:13.032Z,16.67
2018-02-17T06:56:40.669Z,14.77
2018-02-17T06:59:08.134Z,15.18
2018-02-17T07:01:35.656Z,13.35
2018-02-17T07:04:03.134Z,14.63
2018-02-17T07:06:30.579Z,14.70
2018-02-17T07:08:58.194Z,15.43
2018-02-17T07:11:26.403Z,14.77
2018-02-17T07:13:53.848Z,13.30
2018-02-17T07:16:21.329Z,12.50
2018-02-17T07:18:49.632Z,14.80
2018-02-17T07:21:17.088Z,14.60
2018-02-17T07:23:44.558Z,13.83
2018-02-17T07:26:13.594Z,16.77
2018-02-17T07:28:41.068Z,14.53
2018-02-17T07:31:08.522Z,14.23
2018-02-17T07:33:36.332Z,13.00
2018-02-17T07:36:04.000Z,13.48
2018-02-17T07:38:32.789Z,14.10
2018-02-17T07:41:00.274Z,14.23
2018-02-17T07:43:27.729Z,14.90
2018-02-17T07:45:55.199Z,12.80
2018-02-17T07:48:22.646Z,13.90
2018-02-17T07:50:59.240Z,15.93
2018-02-17T07:53:27.325Z,11.63
2018-02-17T07:55:54.795Z,15.30
2018-02-17T07:58:22.673Z,13.40
2018-02-17T08:00:50.747Z,13.97
2018-02-17T08:03:19.016Z,11.90
2018-02-17T08:05:46.665Z,13.35
2018-02-17T08:08:14.168Z,12.45
2018-02-17T08:10:41.596Z,11.50
2018-02-17T08:13:09.846Z,13.20
2018-02-17T08:15:37.410Z,12.57
2018-02-17T08:18:04.887Z,13.47
2018-02-17T08:20:36.110Z,13.15
2018-02-17T08:23:04.488Z,12.02
2018-02-17T08:25:32.020Z,12.67
2018-02-17T08:27:59.582Z,12.75
2018-02-17T08:30:27.057Z,14.40
2018-02-17T08:32:55.114Z,12.50
2018-02-17T08:35:22.862Z,13.80
2018-02-17T08:37:53.842Z,13.15
2018-02-17T08:40:21.290Z,12.85
2018-02-17T08:42:48.772Z,12.90
2018-02-17T08:45:16.213Z,13.03
2018-02-17T08:47:44.610Z,12.40
2018-02-17T08:50:16.064Z,12.75
2018-02-17T08:52:47.492Z,13.47
2018-02-17T08:55:15.588Z,13.00
2018-02-17T08:57:43.048Z,12.33
2018-02-17T09:00:10.932Z,12.33
2018-02-17T09:02:40.093Z,11.90
2018-02-17T09:05:07.573Z,12.77
2018-02-17T09:07:35.216Z,12.23
2018-02-17T09:10:03.997Z,13.80
2018-02-17T09:12:31.666Z,13.20
2018-02-17T09:14:59.891Z,13.80
2018-02-17T09:17:27.361Z,11.30
2018-02-17T09:19:54.816Z,12.70
2018-02-17T09:22:26.092Z,13.50
2018-02-17T09:24:53.565Z,11.57
2018-02-17T09:27:21.011Z,12.13
2018-02-17T09:29:49.486Z,10.97
2018-02-17T09:32:17.584Z,10.70
2018-02-17T09:34:45.102Z,13.35
2018-02-17T09:37:15.855Z,11.70
2018-02-17T09:39:43.317Z,13.98
2018-02-17T09:42:10.765Z,13.00
2018-02-17T09:44:38.837Z,12.60
2018-02-17T09:47:06.286Z,12.68
2018-02-17T09:49:33.768Z,11.65
2018-02-17T09:52:01.220Z,13.20
2018-02-17T09:54:28.675Z,11.73
2018-02-17T09:56:56.128Z,12.73
2018-02-17T09:59:23.736Z,13.87
2018-02-17T10:01:52.888Z,13.70
2018-02-17T10:04:20.367Z,12.82
2018-02-17T10:06:47.812Z,11.17
2018-02-17T10:09:15.313Z,12.43
2018-02-17T10:11:42.800Z,11.30
2018-02-17T10:14:10.261Z,10.35
2018-02-17T10:16:37.716Z,12.10
2018-02-17T10:19:05.916Z,10.46
2018-02-17T10:21:33.363Z,11.23
2018-02-17T10:24:00.846Z,9.83
2018-02-17T10:26:28.292Z,10.57
2018-02-17T10:28:56.515Z,12.43
2018-02-17T10:31:24.197Z,11.47
2018-02-17T10:33:51.672Z,12.03
2018-02-17T10:36:19.912Z,12.16
2018-02-17T10:38:47.356Z,12.97
2018-02-17T10:41:14.840Z,11.53
2018-02-17T10:43:42.425Z,12.80
2018-02-17T10:46:09.881Z,12.20
2018-02-17T10:48:37.459Z,12.57
2018-02-17T10:51:04.864Z,11.63
2018-02-17T10:53:35.300Z,13.18
2018-02-17T10:56:02.751Z,13.43
2018-02-17T10:58:30.189Z,12.80
2018-02-17T11:00:58.372Z,11.40
2018-02-17T11:03:25.941Z,13.93
2018-02-17T11:05:53.391Z,12.17
2018-02-17T11:08:20.848Z,12.18
2018-02-17T11:10:48.638Z,12.20
2018-02-17T11:13:16.102Z,12.10
2018-02-17T11:15:43.577Z,10.67
2018-02-17T11:18:12.827Z,12.65
2018-02-17T11:20:40.300Z,11.23
2018-02-17T11:23:12.184Z,12.27
2018-02-17T11:25:39.632Z,14.67
2018-02-17T11:28:07.076Z,11.00
2018-02-17T11:30:34.523Z,13.70
2018-02-17T11:33:02.005Z,8.80
2018-02-17T11:35:32.210Z,8.10
2018-02-17T11:37:59.673Z,10.13
2018-02-17T11:40:27.120Z,10.00
2018-02-17T11:42:54.804Z,11.85
2018-02-17T11:45:22.298Z,9.60
2018-02-17T11:47:50.657Z,10.70
2018-02-17T11:50:18.149Z,12.37
2018-02-17T11:52:46.417Z,10.70
2018-02-17T11:55:13.845Z,11.90
2018-02-17T11:57:42.080Z,11.77
2018-02-17T12:00:10.089Z,11.77
2018-02-17T12:02:37.556Z,12.50
2018-02-17T12:05:05.845Z,14.90
2018-02-17T12:07:33.449Z,13.03
2018-02-17T12:10:00.946Z,11.82
2018-02-17T12:12:29.295Z,10.45
2018-02-17T12:14:56.758Z,12.07
2018-02-17T12:17:24.248Z,12.17
2018-02-17T12:19:51.721Z,11.20
2018-02-17T12:22:19.170Z,11.13
2018-02-17T12:24:46.612Z,12.23
2018-02-17T12:27:14.060Z,10.03
2018-02-17T12:29:41.698Z,10.98
2018-02-17T12:32:09.132Z,11.60
2018-02-17T12:34:37.362Z,11.57
2018-02-17T12:37:05.004Z,10.53
2018-02-17T12:39:32.868Z,12.85
2018-02-17T12:42:00.340Z,11.13
2018-02-17T12:44:28.568Z,11.60
2018-02-17T12:46:57.340Z,9.77
2018-02-17T12:49:24.845Z,12.50
2018-02-17T12:51:52.321Z,11.70
2018-02-17T12:54:30.901Z,11.00
2018-02-17T12:56:58.561Z,10.15
2018-02-17T12:59:26.001Z,10.23
2018-02-17T13:01:53.456Z,11.60
2018-02-17T13:04:22.643Z,10.82
2018-02-17T13:06:50.245Z,11.20
2018-02-17T13:09:17.898Z,11.90
2018-02-17T13:11:45.392Z,9.93
2018-02-17T13:14:12.844Z,10.73
2018-02-17T13:16:41.985Z,10.40
2018-02-17T13:19:09.464Z,11.13
2018-02-17T13:21:36.940Z,9.80
2018-02-17T13:24:06.112Z,10.07
2018-02-17T13:26:36.657Z,12.00
2018-02-17T13:29:04.096Z,9.43
2018-02-17T13:31:31.560Z,9.75
2018-02-17T13:34:01.641Z,10.53
2018-02-17T13:36:29.100Z,10.60
2018-02-17T13:38:56.572Z,11.38
2018-02-17T13:41:24.026Z,9.32
2018-02-17T13:43:51.518Z,10.95
2018-02-17T13:46:18.983Z,10.65
2018-02-17T13:48:46.444Z,10.37
2018-02-17T13:51:14.613Z,10.88
2018-02-17T13:53:42.095Z,12.02
2018-02-17T13:56:09.536Z,10.90
2018-02-17T13:58:37.001Z,12.50
2018-02-17T14:01:05.241Z,10.80
2018-02-17T14:03:33.624Z,10.85
2018-02-17T14:06:01.099Z,11.07
2018-02-17T14:08:28.568Z,12.73
2018-02-17T14:10:56.770Z,10.40
2018-02-17T14:13:27.276Z,14.10
2018-02-17T14:15:54.814Z,10.60
2018-02-17T14:18:22.316Z,12.10
2018-02-17T14:20:49.842Z,12.07
2018-02-17T14:23:17.781Z,10.70
2018-02-17T14:25:48.308Z,10.77
2018-02-17T14:28:19.760Z,11.53
2018-02-17T14:30:47.204Z,12.00
2018-02-17T14:33:14.676Z,13.05
2018-02-17T14:35:42.196Z,11.52
2018-02-17T14:38:09.657Z,12.37
2018-02-17T14:40:37.687Z,11.93
2018-02-17T14:43:08.885Z,14.03
2018-02-17T14:45:36.409Z,11.52
2018-02-17T14:48:03.855Z,12.15
2018-02-17T14:50:31.316Z,12.50
2018-02-17T14:52:58.792Z,12.27
2018-02-17T14:55:27.178Z,14.32
2018-02-17T14:57:54.631Z,13.43
2018-02-17T15:00:22.117Z,13.63
2018-02-17T15:02:49.560Z,14.97
2018-02-17T15:05:17.048Z,14.43
2018-02-17T15:07:44.546Z,13.10
2018-02-17T15:10:11.991Z,11.80
2018-02-17T15:12:43.714Z,12.25
2018-02-17T15:15:11.364Z,12.75
2018-02-17T15:17:39.058Z,12.87
2018-02-17T15:20:06.541Z,14.35
2018-02-17T15:22:35.791Z,14.53
2018-02-17T15:25:03.445Z,13.60
2018-02-17T15:27:34.302Z,13.43
2018-02-17T15:30:01.749Z,13.10
2018-02-17T15:32:29.221Z,14.47
2018-02-17T15:34:56.685Z,13.93
2018-02-17T15:37:24.137Z,13.80
2018-02-17T15:39:51.800Z,14.53
2018-02-17T15:42:19.812Z,12.98
2018-02-17T15:44:47.281Z,14.90
2018-02-17T15:47:14.756Z,15.40
2018-02-17T15:49:42.491Z,14.63
2018-02-17T15:52:09.979Z,14.73
2018-02-17T15:54:37.434Z,14.13
2018-02-17T15:57:05.522Z,13.20
2018-02-17T15:59:33.117Z,15.73
2018-02-17T16:02:00.596Z,14.87
2018-02-17T16:04:28.092Z,15.03
2018-02-17T16:06:55.549Z,15.80
2018-02-17T16:09:23.086Z,16.53
2018-02-17T16:11:50.525Z,16.47
2018-02-17T16:14:18.036Z,15.07
2018-02-17T16:16:45.605Z,15.53
2018-02-17T16:19:13.268Z,16.27
2018-02-17T16:21:42.427Z,16.08
2018-02-17T16:24:09.949Z,14.13
2018-02-17T16:26:37.450Z,14.63
2018-02-17T16:29:04.905Z,14.57
2018-02-17T16:31:32.406Z,14.80
2018-02-17T16:34:01.565Z,13.40
2018-02-17T16:36:29.043Z,18.23
2018-02-17T16:38:56.492Z,15.30
2018-02-17T16:41:23.961Z,13.70
2018-02-17T16:43:51.604Z,16.42
2018-02-17T16:46:20.065Z,15.05
2018-02-17T16:48:47.516Z,15.10
2018-02-17T16:51:14.980Z,17.00
2018-02-17T16:53:42.512Z,17.40
2018-02-17T16:56:09.978Z,15.05
2018-02-17T16:58:40.949Z,15.60
2018-02-17T17:01:08.417Z,16.07
2018-02-17T17:03:36.065Z,15.50
2018-02-17T17:06:04.850Z,15.68
2018-02-17T17:08:32.316Z,16.50
2018-02-17T17:10:59.803Z,13.23
2018-02-17T17:13:27.260Z,16.13
2018-02-17T17:15:55.498Z,16.73
2018-02-17T17:18:23.075Z,14.77
2018-02-17T17:20:50.555Z,17.00
2018-02-17T17:23:18.147Z,15.20
2018-02-17T17:25:45.600Z,16.43
2018-02-17T17:28:13.057Z,15.50
2018-02-17T17:30:40.528Z,15.77
2018-02-17T17:33:08.013Z,15.97
2018-02-17T17:35:35.499Z,17.10
2018-02-17T17:38:02.940Z,16.97
2018-02-17T17:40:30.443Z,16.33
2018-02-17T17:42:57.876Z,14.82
2018-02-17T17:45:26.076Z,16.77
2018-02-17T17:47:53.553Z,16.73
2018-02-17T17:50:21.037Z,15.05
2018-02-17T17:52:48.685Z,16.33
2018-02-17T17:55:16.175Z,16.40
2018-02-17T17:57:43.782Z,14.50
2018-02-17T18:00:11.233Z,17.10
2018-02-17T18:02:40.389Z,15.50
2018-02-17T18:05:08.157Z,18.13
2018-02-17T18:07:35.932Z,14.40
2018-02-17T18:10:03.936Z,16.98
2018-02-17T18:12:31.382Z,18.40
2018-02-17T18:15:01.905Z,20.95
2018-02-17T18:17:29.404Z,14.17
2018-02-17T18:19:56.856Z,16.67
2018-02-17T18:22:24.318Z,15.97
2018-02-17T18:24:51.777Z,16.12
2018-02-17T18:27:19.217Z,17.60
2018-02-17T18:29:49.878Z,16.17
2018-02-17T18:32:17.439Z,17.23
2018-02-17T18:34:44.848Z,16.45
2018-02-17T18:37:13.184Z,18.37
2018-02-17T18:39:41.450Z,16.43
2018-02-17T18:42:08.951Z,18.07
2018-02-17T18:44:36.510Z,15.17
2018-02-17T18:47:04.161Z,15.50
2018-02-17T18:49:32.147Z,16.95
2018-02-17T18:51:59.605Z,17.17
2018-02-17T18:54:27.984Z,15.90
2018-02-17T18:56:55.463Z,16.12
2018-02-17T18:59:22.957Z,15.10
2018-02-17T19:01:50.413Z,17.13
2018-02-17T19:04:17.856Z,17.07
2018-02-17T19:06:46.425Z,14.40
2018-02-17T19:09:13.930Z,15.40
2018-02-17T19:11:42.140Z,16.40
2018-02-17T19:14:10.533Z,14.68
2018-02-17T19:16:42.506Z,17.53
2018-02-17T19:19:10.120Z,13.02
2018-02-17T19:21:37.581Z,16.47
2018-02-17T19:24:05.885Z,15.70
2018-02-17T19:26:33.345Z,17.42
2018-02-17T19:29:01.080Z,16.23
2018-02-17T19:31:32.464Z,17.17
2018-02-17T19:34:00.744Z,17.10
2018-02-17T19:36:28.242Z,17.23
2018-02-17T19:38:55.693Z,15.87
2018-02-17T19:41:23.186Z,15.82
2018-02-17T19:43:50.690Z,16.00
2018-02-17T19:46:18.193Z,15.00
2018-02-17T19:48:45.664Z,14.50
2018-02-17T19:51:13.199Z,15.30
2018-02-17T19:53:40.673Z,15.20
2018-02-17T19:56:09.050Z,16.27
2018-02-17T19:58:36.512Z,13.57
2018-02-17T20:01:03.976Z,17.60
2018-02-17T20:03:31.582Z,15.80
2018-02-17T20:05:59.021Z,17.90
2018-02-17T20:08:26.478Z,16.10
2018-02-17T20:10:54.137Z,16.60
2018-02-17T20:13:21.587Z,16.67
2018-02-17T20:15:49.053Z,14.05
2018-02-17T20:18:17.280Z,17.34
2018-02-17T20:20:44.720Z,15.10
2018-02-17T20:23:12.193Z,16.67
2018-02-17T20:25:39.712Z,15.53
2018-02-17T20:28:07.156Z,16.05
2018-02-17T20:30:34.665Z,15.40
2018-02-17T20:33:02.125Z,14.90
2018-02-17T20:35:29.565Z,16.83
2018-02-17T20:37:58.066Z,15.48
2018-02-17T20:40:26.464Z,17.16
2018-02-17T20:42:54.899Z,17.00
2018-02-17T20:45:23.121Z,16.00
2018-02-17T20:47:53.769Z,18.20
2018-02-17T20:50:21.948Z,17.27
2018-02-17T20:52:49.423Z,15.30
2018-02-17T20:55:17.681Z,18.00
2018-02-17T20:57:46.012Z,17.15
2018-02-17T21:00:14.071Z,16.20
2018-02-17T21:02:41.544Z,17.33
2018-02-17T21:05:10.289Z,14.87
2018-02-17T21:07:37.736Z,15.40
2018-02-17T21:10:05.450Z,15.33
2018-02-17T21:12:32.955Z,15.17
2018-02-17T21:15:00.413Z,14.10
2018-02-17T21:17:27.869Z,15.98
2018-02-17T21:19:55.513Z,14.90
2018-02-17T21:22:23.799Z,15.55
2018-02-17T21:24:51.284Z,15.57
2018-02-17T21:27:23.380Z,14.60
2018-02-17T21:29:50.852Z,14.57
2018-02-17T21:32:18.477Z,14.23
2018-02-17T21:34:50.505Z,15.73
2018-02-17T21:37:17.972Z,15.70
2018-02-17T21:39:46.191Z,15.40
2018-02-17T21:42:13.945Z,15.47
2018-02-17T21:44:41.436Z,15.83
2018-02-17T21:47:08.919Z,12.13
2018-02-17T21:49:36.383Z,15.13
2018-02-17T21:52:04.586Z,14.27
2018-02-17T21:54:32.579Z,13.40
2018-02-17T21:57:00.053Z,14.07
2018-02-17T21:59:27.525Z,13.87
2018-02-17T22:01:55.028Z,15.15
2018-02-17T22:04:26.209Z,16.60
2018-02-17T22:06:53.673Z,15.70
2018-02-17T22:09:21.896Z,15.20
2018-02-17T22:11:49.381Z,14.93
2018-02-17T22:14:17.040Z,14.33
2018-02-17T22:16:44.502Z,14.33
2018-02-17T22:19:11.947Z,14.63
2018-02-17T22:21:39.492Z,15.45
2018-02-17T22:24:06.954Z,15.10
2018-02-17T22:26:34.405Z,13.25
2018-02-17T22:29:01.922Z,12.18
2018-02-17T22:31:29.365Z,13.50
2018-02-17T22:33:59.905Z,12.93
2018-02-17T22:36:27.350Z,13.02
2018-02-17T22:38:55.985Z,12.20
2018-02-17T22:41:23.467Z,11.80
2018-02-17T22:43:50.905Z,12.20
2018-02-17T22:46:18.384Z,13.13
2018-02-17T22:48:45.906Z,12.23
2018-02-17T22:51:15.069Z,12.60
2018-02-17T22:53:42.569Z,11.40
2018-02-17T22:56:10.013Z,11.68
2018-02-17T22:58:37.513Z,10.97
2018-02-17T23:01:05.000Z,12.90
2018-02-17T23:03:32.468Z,12.45
2018-02-17T23:06:01.069Z,13.65
2018-02-17T23:08:28.568Z,11.97
2018-02-17T23:10:56.059Z,12.10
2018-02-17T23:13:23.504Z,13.30
2018-02-17T23:15:50.972Z,13.13
2018-02-17T23:18:18.417Z,10.43
2018-02-17T23:20:45.910Z,13.70
2018-02-17T23:23:13.394Z,13.10
2018-02-17T23:25:41.773Z,14.67
2018-02-17T23:28:09.245Z,12.10
2018-02-17T23:30:37.435Z,13.05
2018-02-17T23:33:04.932Z,12.55
2018-02-17T23:35:32.399Z,11.75
2018-02-17T23:38:00.772Z,13.00
2018-02-17T23:40:28.308Z,12.00
2018-02-17T23:42:55.756Z,13.53
2018-02-17T23:45:23.763Z,13.43
2018-02-17T23:47:51.240Z,15.30
2018-02-17T23:50:18.680Z,15.50
2018-02-17T23:52:46.215Z,13.80
2018-02-17T23:55:15.178Z,14.95
2018-02-17T23:57:42.644Z,15.47
